createdAt,value
2023-05-14T00:00:32.491Z,73.88
2023-05-14T00:02:59.748Z,74.25
2023-05-14T00:05:27.133Z,74.55
2023-05-14T00:07:54.164Z,74.32
2023-05-14T00:10:22.227Z,74.13
2023-05-14T00:12:51.084Z,73.87
2023-05-14T00:15:18.482Z,74.14
2023-05-14T00:17:45.806Z,74.14
2023-05-14T00:20:12.902Z,74.77
2023-05-14T00:22:40.647Z,74.61
2023-05-14T00:25:08.569Z,74.11
2023-05-14T00:27:37.926Z,73.64
2023-05-14T00:30:07.088Z,73.73
2023-05-14T00:32:34.556Z,73.80
2023-05-14T00:35:03.633Z,74.81
2023-05-14T00:37:30.774Z,74.47
2023-05-14T00:40:00.493Z,74.48
2023-05-14T00:42:27.527Z,74.56
2023-05-14T00:44:54.644Z,75.86
2023-05-14T00:47:21.746Z,75.65
2023-05-14T00:49:48.897Z,75.11
2023-05-14T00:52:17.083Z,74.70
2023-05-14T00:54:46.926Z,74.63
2023-05-14T00:57:14.212Z,74.57
2023-05-14T00:59:42.793Z,74.25
2023-05-14T01:02:10.069Z,74.61
2023-05-14T01:04:38.646Z,74.83
2023-05-14T01:07:32.183Z,74.75
2023-05-14T01:10:17.792Z,74.55
2023-05-14T01:12:51.365Z,74.53
2023-05-14T01:15:18.281Z,74.73
2023-05-14T01:17:59.729Z,74.40
2023-05-14T01:20:27.374Z,74.33
2023-05-14T01:22:54.481Z,74.53
2023-05-14T01:25:21.676Z,74.69
2023-05-14T01:28:17.624Z,74.96
2023-05-14T01:30:58.803Z,74.50
2023-05-14T01:33:29.532Z,75.15
2023-05-14T01:35:56.813Z,76.17
2023-05-14T01:38:24.523Z,75.90
2023-05-14T01:40:52.673Z,75.93
2023-05-14T01:43:21.269Z,76.00
2023-05-14T01:45:48.417Z,76.11
2023-05-14T01:48:15.834Z,76.03
2023-05-14T01:50:42.959Z,75.66
2023-05-14T01:53:10.011Z,75.47
2023-05-14T01:55:37.140Z,75.71
2023-05-14T01:58:04.309Z,76.03
2023-05-14T02:00:31.790Z,75.98
2023-05-14T02:02:58.998Z,76.49
2023-05-14T02:05:26.181Z,77.21
2023-05-14T02:07:54.550Z,76.69
2023-05-14T02:10:21.795Z,75.77
2023-05-14T02:12:50.038Z,76.01
2023-05-14T02:15:17.302Z,76.28
2023-05-14T02:17:44.401Z,76.78
2023-05-14T02:20:11.888Z,77.29
2023-05-14T02:22:38.970Z,76.90
2023-05-14T02:25:06.506Z,76.65
2023-05-14T02:27:33.891Z,76.89
2023-05-14T02:30:01.210Z,76.69
2023-05-14T02:32:28.697Z,77.30
2023-05-14T02:34:55.895Z,77.53
2023-05-14T02:37:23.049Z,76.63
2023-05-14T02:39:50.188Z,76.50
2023-05-14T02:42:17.269Z,76.54
2023-05-14T02:44:44.276Z,76.56
2023-05-14T02:47:11.414Z,77.47
2023-05-14T02:49:38.823Z,77.03
2023-05-14T02:52:06.767Z,76.97
2023-05-14T02:54:33.827Z,76.67
2023-05-14T02:57:01.057Z,76.80
2023-05-14T02:59:28.301Z,78.47
2023-05-14T03:01:56.002Z,78.40
2023-05-14T03:04:23.520Z,78.79
2023-05-14T03:06:50.600Z,79.36
2023-05-14T03:09:17.619Z,79.11
2023-05-14T03:11:44.808Z,79.08
2023-05-14T03:14:12.043Z,79.53
2023-05-14T03:16:40.313Z,79.07
2023-05-14T03:19:07.561Z,79.20
2023-05-14T03:21:34.813Z,80.84
2023-05-14T03:24:02.098Z,81.12
2023-05-14T03:26:29.246Z,80.72
2023-05-14T03:28:56.360Z,80.79
2023-05-14T03:31:23.535Z,80.37
2023-05-14T03:33:50.636Z,79.41
2023-05-14T03:36:17.757Z,79.64
2023-05-14T03:38:44.779Z,79.89
2023-05-14T03:41:11.882Z,79.91
2023-05-14T03:43:38.959Z,79.72
2023-05-14T03:46:06.033Z,78.67
2023-05-14T03:48:33.297Z,78.35
2023-05-14T03:51:00.421Z,78.45
2023-05-14T03:53:28.505Z,78.63
2023-05-14T03:55:55.434Z,79.65
2023-05-14T03:58:22.348Z,79.45
2023-05-14T04:00:49.498Z,79.07
2023-05-14T04:03:16.936Z,78.56
2023-05-14T04:05:44.113Z,78.53
2023-05-14T04:08:11.243Z,79.03
2023-05-14T04:10:38.243Z,79.77
2023-05-14T04:13:05.270Z,80.35
2023-05-14T04:15:39.518Z,80.82
2023-05-14T04:18:06.765Z,81.23
2023-05-14T04:20:34.128Z,80.84
2023-05-14T04:23:01.144Z,81.52
2023-05-14T04:25:28.313Z,81.69
2023-05-14T04:27:55.383Z,79.90
2023-05-14T04:30:22.899Z,81.13
2023-05-14T04:32:50.314Z,81.00
2023-05-14T04:35:17.343Z,81.03
2023-05-14T04:37:44.420Z,81.00
2023-05-14T04:40:11.606Z,80.80
2023-05-14T04:42:39.282Z,81.44
2023-05-14T04:45:07.021Z,81.67
2023-05-14T04:47:34.162Z,80.88
2023-05-14T04:50:01.470Z,80.38
2023-05-14T04:52:28.559Z,79.86
2023-05-14T04:54:56.995Z,79.94
2023-05-14T04:57:24.166Z,80.70
2023-05-14T04:59:51.130Z,81.53
2023-05-14T05:02:18.328Z,81.89
2023-05-14T05:04:47.235Z,82.63
2023-05-14T05:07:14.763Z,82.63
2023-05-14T05:09:42.877Z,81.91
2023-05-14T05:12:10.240Z,81.91
2023-05-14T05:14:37.336Z,82.20
2023-05-14T05:17:04.495Z,82.27
2023-05-14T05:19:42.578Z,81.53
2023-05-14T05:22:11.049Z,81.46
2023-05-14T05:24:38.070Z,80.20
2023-05-14T05:27:05.746Z,79.56
2023-05-14T05:29:32.811Z,78.98
2023-05-14T05:32:00.052Z,79.47
2023-05-14T05:34:27.460Z,78.94
2023-05-14T05:36:54.531Z,79.96
2023-05-14T05:39:21.623Z,80.42
2023-05-14T05:41:48.788Z,81.14
2023-05-14T05:44:15.909Z,81.64
2023-05-14T05:46:42.960Z,82.20
2023-05-14T05:49:10.017Z,82.26
2023-05-14T05:51:37.055Z,82.67
2023-05-14T05:54:04.286Z,83.29
2023-05-14T05:56:31.388Z,82.47
2023-05-14T05:58:58.484Z,81.54
2023-05-14T06:01:25.636Z,81.47
2023-05-14T06:03:53.605Z,80.36
2023-05-14T06:06:21.971Z,79.72
2023-05-14T06:08:49.314Z,81.02
2023-05-14T06:11:17.151Z,82.86
2023-05-14T06:13:44.244Z,82.15
2023-05-14T06:16:11.574Z,81.49
2023-05-14T06:18:38.730Z,80.90
2023-05-14T06:21:06.178Z,81.86
2023-05-14T06:23:33.617Z,81.88
2023-05-14T06:26:00.701Z,82.75
2023-05-14T06:28:27.692Z,83.26
2023-05-14T06:30:54.704Z,83.42
2023-05-14T06:33:29.667Z,82.64
2023-05-14T06:35:57.274Z,83.14
2023-05-14T06:38:24.364Z,84.71
2023-05-14T06:40:51.988Z,85.42
2023-05-14T06:43:19.232Z,81.39
2023-05-14T06:45:49.311Z,78.46
2023-05-14T06:48:18.921Z,77.69
2023-05-14T06:50:49.884Z,77.53
2023-05-14T06:53:17.285Z,78.42
2023-05-14T06:55:45.187Z,81.57
2023-05-14T06:58:12.141Z,82.28
2023-05-14T07:00:40.309Z,83.82
2023-05-14T07:03:07.436Z,85.50
2023-05-14T07:05:34.669Z,85.89
2023-05-14T07:08:01.697Z,86.13
2023-05-14T07:10:28.776Z,85.56
2023-05-14T07:12:55.843Z,86.15
2023-05-14T07:15:22.789Z,86.83
2023-05-14T07:17:49.839Z,87.37
2023-05-14T07:20:17.012Z,86.42
2023-05-14T07:22:44.080Z,86.25
2023-05-14T07:25:11.227Z,86.40
2023-05-14T07:27:38.372Z,86.14
2023-05-14T07:30:05.949Z,85.88
2023-05-14T07:32:32.885Z,85.54
2023-05-14T07:35:00.417Z,86.11
2023-05-14T07:37:27.763Z,85.64
2023-05-14T07:39:54.860Z,85.93
2023-05-14T07:42:34.389Z,86.19
2023-05-14T07:45:03.923Z,85.47
2023-05-14T07:47:35.527Z,84.75
2023-05-14T07:50:02.631Z,84.22
2023-05-14T07:52:29.985Z,83.74
2023-05-14T07:54:57.028Z,81.75
2023-05-14T07:57:24.021Z,81.37
2023-05-14T07:59:51.114Z,81.43
2023-05-14T08:02:18.279Z,82.63
2023-05-14T08:04:45.904Z,84.34
2023-05-14T08:07:12.914Z,84.59
2023-05-14T08:09:40.134Z,83.56
2023-05-14T08:12:07.757Z,81.89
2023-05-14T08:14:35.070Z,81.51
2023-05-14T08:17:02.156Z,80.86
2023-05-14T08:19:29.343Z,82.43
2023-05-14T08:21:56.443Z,83.10
2023-05-14T08:24:23.425Z,83.08
2023-05-14T08:26:50.366Z,80.76
2023-05-14T08:29:17.462Z,79.79
2023-05-14T08:31:44.545Z,81.30
2023-05-14T08:34:11.593Z,81.74
2023-05-14T08:36:41.521Z,82.92
2023-05-14T08:39:08.952Z,83.73
2023-05-14T08:41:37.658Z,84.30
2023-05-14T08:44:12.297Z,83.67
2023-05-14T08:46:39.888Z,81.97
2023-05-14T08:49:13.367Z,82.85
2023-05-14T08:51:41.392Z,82.35
2023-05-14T08:54:08.665Z,79.78
2023-05-14T08:56:36.386Z,81.41
2023-05-14T08:59:03.501Z,82.92
2023-05-14T09:01:30.943Z,85.13
2023-05-14T09:03:58.877Z,85.25
2023-05-14T09:06:27.508Z,85.16
2023-05-14T09:08:54.992Z,84.46
2023-05-14T09:11:22.148Z,84.05
2023-05-14T09:13:49.171Z,84.02
2023-05-14T09:16:18.406Z,83.55
2023-05-14T09:18:46.002Z,82.95
2023-05-14T09:21:16.178Z,82.11
2023-05-14T09:23:44.640Z,81.77
2023-05-14T09:26:12.237Z,82.39
2023-05-14T09:28:43.789Z,82.60
2023-05-14T09:31:11.100Z,83.25
2023-05-14T09:33:38.100Z,80.90
2023-05-14T09:36:05.311Z,81.73
2023-05-14T09:38:33.324Z,82.98
2023-05-14T09:41:01.207Z,84.21
2023-05-14T09:43:28.553Z,84.09
2023-05-14T09:45:55.755Z,84.38
2023-05-14T09:48:23.222Z,84.76
2023-05-14T09:50:51.778Z,85.25
2023-05-14T09:53:19.457Z,85.29
2023-05-14T09:55:47.157Z,85.05
2023-05-14T09:58:16.934Z,83.09
2023-05-14T10:00:46.568Z,81.97
2023-05-14T10:03:17.932Z,82.74
2023-05-14T10:05:49.525Z,84.31
2023-05-14T10:08:25.527Z,84.72
2023-05-14T10:10:54.590Z,85.05
2023-05-14T10:13:28.126Z,88.10
2023-05-14T10:16:16.781Z,90.44
2023-05-14T10:18:48.744Z,87.82
2023-05-14T10:21:18.281Z,86.80
2023-05-14T10:23:49.223Z,84.68
2023-05-14T10:26:17.096Z,85.27
2023-05-14T10:28:44.540Z,87.83
2023-05-14T10:31:11.896Z,87.57
2023-05-14T10:33:50.670Z,89.59
2023-05-14T10:36:18.860Z,88.97
2023-05-14T10:38:47.578Z,89.53
2023-05-14T10:41:18.104Z,88.56
2023-05-14T10:43:45.444Z,85.91
2023-05-14T10:46:14.000Z,87.91
2023-05-14T10:48:44.542Z,85.89
2023-05-14T10:51:12.829Z,82.00
2023-05-14T10:53:42.562Z,84.29
2023-05-14T10:56:14.454Z,83.73
2023-05-14T10:58:45.335Z,84.09
2023-05-14T11:01:13.949Z,79.85
2023-05-14T11:03:43.856Z,85.17
2023-05-14T11:06:13.628Z,87.90
2023-05-14T11:08:42.882Z,87.90
2023-05-14T11:11:10.999Z,89.89
2023-05-14T11:13:38.606Z,90.24
2023-05-14T11:18:42.044Z,80.20
2023-05-14T11:21:09.241Z,85.72
2023-05-14T11:23:36.597Z,86.31
2023-05-14T11:26:03.965Z,87.29
2023-05-14T11:28:31.041Z,88.47
2023-05-14T11:30:58.202Z,82.70
2023-05-14T11:33:28.125Z,86.66
2023-05-14T11:35:55.111Z,85.94
2023-05-14T11:38:22.265Z,85.28
2023-05-14T11:40:56.841Z,81.03
2023-05-14T11:43:24.401Z,79.76
2023-05-14T11:45:53.097Z,78.09
2023-05-14T11:48:21.596Z,81.97
2023-05-14T11:50:50.241Z,83.01
2023-05-14T11:53:28.587Z,80.10
2023-05-14T11:55:57.930Z,82.23
2023-05-14T11:58:25.706Z,83.24
2023-05-14T12:00:53.745Z,85.80
2023-05-14T12:03:30.982Z,84.96
2023-05-14T12:06:02.800Z,82.00
2023-05-14T12:08:32.375Z,81.55
2023-05-14T12:11:00.978Z,79.39
2023-05-14T12:13:31.837Z,82.71
2023-05-14T12:16:02.782Z,81.17
2023-05-14T12:18:31.652Z,80.79
2023-05-14T12:21:08.504Z,66.69
2023-05-14T12:23:35.947Z,65.38
2023-05-14T12:26:06.513Z,66.29
2023-05-14T12:28:36.923Z,68.12
2023-05-14T12:31:05.170Z,68.47
2023-05-14T12:33:32.204Z,65.35
2023-05-14T12:36:14.098Z,63.13
2023-05-14T12:38:48.247Z,65.64
2023-05-14T12:41:15.334Z,64.85
2023-05-14T12:43:47.525Z,67.09
2023-05-14T12:46:14.877Z,65.95
2023-05-14T12:48:41.931Z,65.50
2023-05-14T12:51:09.138Z,68.02
2023-05-14T12:53:36.042Z,69.82
2023-05-14T12:56:03.268Z,69.49
2023-05-14T12:58:30.376Z,65.50
2023-05-14T13:00:57.434Z,68.12
2023-05-14T13:03:24.875Z,66.58
2023-05-14T13:05:52.956Z,66.47
2023-05-14T13:08:21.755Z,67.38
2023-05-14T13:10:48.799Z,67.55
2023-05-14T13:13:16.352Z,66.54
2023-05-14T13:15:46.951Z,66.46
2023-05-14T13:18:14.730Z,65.93
2023-05-14T13:20:43.188Z,67.16
2023-05-14T13:23:10.762Z,67.38
2023-05-14T13:25:37.776Z,66.70
2023-05-14T13:28:04.978Z,67.24
2023-05-14T13:30:32.540Z,66.88
2023-05-14T13:33:00.284Z,65.53
2023-05-14T13:35:27.264Z,64.75
2023-05-14T13:37:54.203Z,64.35
2023-05-14T13:40:21.259Z,63.86
2023-05-14T13:42:48.163Z,71.44
2023-05-14T13:45:15.125Z,72.53
2023-05-14T13:47:42.342Z,71.81
2023-05-14T13:50:09.445Z,72.86
2023-05-14T13:52:36.733Z,72.03
2023-05-14T13:55:04.197Z,71.43
2023-05-14T13:57:31.378Z,68.26
2023-05-14T13:59:58.417Z,69.94
2023-05-14T14:02:25.492Z,65.17
2023-05-14T14:04:52.575Z,66.85
2023-05-14T14:07:19.523Z,66.88
2023-05-14T14:09:46.508Z,66.89
2023-05-14T14:12:13.565Z,67.61
2023-05-14T14:14:41.146Z,69.29
2023-05-14T14:17:09.293Z,72.21
2023-05-14T14:19:36.491Z,74.03
2023-05-14T14:22:03.752Z,74.66
2023-05-14T14:24:30.814Z,73.96
2023-05-14T14:26:58.055Z,73.73
2023-05-14T14:29:25.108Z,74.20
2023-05-14T14:31:52.368Z,74.51
2023-05-14T14:34:19.460Z,74.70
2023-05-14T14:36:46.450Z,71.57
2023-05-14T14:39:13.460Z,71.34
2023-05-14T14:41:40.461Z,68.48
2023-05-14T14:44:07.405Z,71.24
2023-05-14T14:46:34.428Z,69.77
2023-05-14T14:49:01.541Z,69.20
2023-05-14T14:51:28.522Z,68.51
2023-05-14T14:53:55.704Z,68.96
2023-05-14T14:56:22.765Z,69.93
2023-05-14T14:58:49.658Z,69.57
2023-05-14T15:01:17.149Z,67.03
2023-05-14T15:03:45.897Z,68.63
2023-05-14T15:06:12.842Z,68.78
2023-05-14T15:08:40.081Z,69.68
2023-05-14T15:11:08.205Z,70.26
2023-05-14T15:13:35.277Z,70.55
2023-05-14T15:16:02.325Z,71.01
2023-05-14T15:18:29.390Z,71.01
2023-05-14T15:20:56.718Z,70.38
2023-05-14T15:23:23.724Z,70.63
2023-05-14T15:25:50.804Z,70.62
2023-05-14T15:28:18.061Z,71.31
2023-05-14T15:30:47.396Z,70.90
2023-05-14T15:33:19.304Z,72.22
2023-05-14T15:35:46.713Z,72.57
2023-05-14T15:38:13.859Z,72.97
2023-05-14T15:40:41.136Z,72.71
2023-05-14T15:43:08.161Z,72.57
2023-05-14T15:45:35.135Z,71.75
2023-05-14T15:48:02.423Z,72.59
2023-05-14T15:50:29.409Z,73.19
2023-05-14T15:52:56.428Z,72.65
2023-05-14T15:55:23.519Z,71.34
2023-05-14T15:57:50.535Z,72.50
2023-05-14T16:00:17.999Z,73.52
2023-05-14T16:02:45.173Z,73.70
2023-05-14T16:05:12.251Z,74.61
2023-05-14T16:07:39.745Z,73.66
2023-05-14T16:10:07.237Z,73.45
2023-05-14T16:12:34.556Z,73.90
2023-05-14T16:15:01.639Z,72.95
2023-05-14T16:17:29.746Z,73.24
2023-05-14T16:19:56.755Z,73.71
2023-05-14T16:22:23.716Z,73.83
2023-05-14T16:24:50.946Z,73.80
2023-05-14T16:27:19.266Z,73.13
2023-05-14T16:29:46.548Z,73.49
2023-05-14T16:32:13.722Z,73.16
2023-05-14T16:34:40.807Z,73.47
2023-05-14T16:37:09.290Z,73.45
2023-05-14T16:39:37.952Z,73.69
2023-05-14T16:42:05.353Z,73.17
2023-05-14T16:44:32.402Z,73.24
2023-05-14T16:46:59.519Z,73.18
2023-05-14T16:49:26.548Z,73.12
2023-05-14T16:51:53.760Z,73.23
2023-05-14T16:54:20.695Z,72.97
2023-05-14T16:56:48.453Z,73.10
2023-05-14T16:59:16.310Z,72.88
2023-05-14T17:01:44.459Z,73.18
2023-05-14T17:04:11.648Z,72.79
2023-05-14T17:06:38.663Z,72.65
2023-05-14T17:09:07.221Z,72.42
2023-05-14T17:11:34.228Z,71.49
2023-05-14T17:14:01.265Z,71.08
2023-05-14T17:16:28.671Z,70.84
2023-05-14T17:18:56.013Z,71.46
2023-05-14T17:21:23.019Z,71.14
2023-05-14T17:23:50.182Z,71.05
2023-05-14T17:26:17.170Z,71.11
2023-05-14T17:28:44.344Z,69.64
2023-05-14T17:31:11.536Z,69.00
2023-05-14T17:33:38.558Z,71.55
2023-05-14T17:36:05.866Z,70.54
2023-05-14T17:38:32.756Z,69.15
2023-05-14T17:40:59.774Z,69.72
2023-05-14T17:43:26.720Z,69.89
2023-05-14T17:45:54.767Z,70.63
2023-05-14T17:48:23.299Z,70.38
2023-05-14T17:50:51.827Z,70.41
2023-05-14T17:53:19.051Z,71.99
2023-05-14T17:55:46.206Z,70.88
2023-05-14T17:58:15.577Z,70.57
2023-05-14T18:00:42.696Z,69.80
2023-05-14T18:03:10.525Z,70.41
2023-05-14T18:05:37.798Z,71.74
2023-05-14T18:08:05.051Z,73.76
2023-05-14T18:10:32.382Z,75.43
2023-05-14T18:12:59.476Z,76.24
2023-05-14T18:15:27.519Z,76.24
2023-05-14T18:17:54.766Z,77.33
2023-05-14T18:20:21.933Z,77.23
2023-05-14T18:22:50.781Z,77.04
2023-05-14T18:25:18.040Z,77.01
2023-05-14T18:27:45.679Z,76.89
2023-05-14T18:30:14.749Z,76.67
2023-05-14T18:32:43.949Z,76.72
2023-05-14T18:35:12.581Z,76.88
2023-05-14T18:37:39.914Z,77.28
2023-05-14T18:40:07.688Z,77.05
2023-05-14T18:42:35.120Z,76.70
2023-05-14T18:45:02.510Z,76.82
2023-05-14T18:47:30.698Z,76.43
2023-05-14T18:50:02.019Z,76.47
2023-05-14T18:52:29.548Z,76.24
2023-05-14T18:54:57.040Z,76.46
2023-05-14T18:57:24.152Z,76.67
2023-05-14T18:59:51.277Z,76.72
2023-05-14T19:02:18.296Z,76.80
2023-05-14T19:04:52.307Z,76.37
2023-05-14T19:07:20.427Z,76.22
2023-05-14T19:09:47.364Z,76.09
2023-05-14T19:12:14.624Z,76.49
2023-05-14T19:14:42.307Z,76.30
2023-05-14T19:17:09.336Z,75.97
2023-05-14T19:19:36.572Z,75.96
2023-05-14T19:22:03.922Z,75.92
2023-05-14T19:24:30.981Z,75.66
2023-05-14T19:26:58.194Z,75.79
2023-05-14T19:29:25.112Z,75.26
2023-05-14T19:31:52.204Z,75.29
2023-05-14T19:34:19.247Z,75.43
2023-05-14T19:36:46.329Z,75.34
2023-05-14T19:39:13.335Z,73.77
2023-05-14T19:41:40.480Z,74.04
2023-05-14T19:44:07.689Z,74.35
2023-05-14T19:46:34.718Z,74.72
2023-05-14T19:49:01.754Z,75.39
2023-05-14T19:51:28.958Z,75.57
2023-05-14T19:53:56.043Z,75.83
2023-05-14T19:56:24.695Z,75.69
2023-05-14T19:58:52.801Z,75.19
2023-05-14T20:01:21.144Z,75.06
2023-05-14T20:03:48.433Z,76.53
2023-05-14T20:06:15.667Z,75.82
2023-05-14T20:08:43.312Z,75.58
2023-05-14T20:11:10.675Z,75.33
2023-05-14T20:13:38.400Z,75.61
2023-05-14T20:16:05.990Z,75.64
2023-05-14T20:18:33.152Z,75.31
2023-05-14T20:21:00.238Z,76.29
2023-05-14T20:23:27.243Z,75.99
2023-05-14T20:25:54.170Z,75.57
2023-05-14T20:28:21.244Z,77.36
2023-05-14T20:30:48.313Z,77.21
2023-05-14T20:33:15.469Z,77.29
2023-05-14T20:35:44.109Z,77.01
2023-05-14T20:38:12.969Z,75.97
2023-05-14T20:40:40.482Z,76.07
2023-05-14T20:43:07.720Z,75.94
2023-05-14T20:45:34.800Z,75.81
2023-05-14T20:48:01.841Z,74.97
2023-05-14T20:50:28.957Z,75.52
2023-05-14T20:52:56.118Z,74.60
2023-05-14T20:55:23.551Z,76.02
2023-05-14T20:57:50.772Z,77.34
2023-05-14T21:00:18.263Z,77.67
2023-05-14T21:02:45.565Z,77.20
2023-05-14T21:05:14.080Z,77.36
2023-05-14T21:07:41.220Z,77.02
2023-05-14T21:10:09.138Z,77.38
2023-05-14T21:12:36.420Z,77.95
2023-05-14T21:15:03.500Z,76.47
2023-05-14T21:17:30.769Z,77.93
2023-05-14T21:19:58.128Z,78.53
2023-05-14T21:22:25.191Z,77.59
2023-05-14T21:24:52.156Z,77.16
2023-05-14T21:27:19.172Z,76.45
2023-05-14T21:29:46.598Z,76.30
2023-05-14T21:32:13.696Z,76.97
2023-05-14T21:34:40.665Z,78.28
2023-05-14T21:37:07.765Z,79.21
2023-05-14T21:39:34.710Z,77.54
2023-05-14T21:42:01.878Z,77.94
2023-05-14T21:44:28.831Z,78.26
2023-05-14T21:46:55.942Z,78.94
2023-05-14T21:49:22.851Z,77.68
2023-05-14T21:51:53.242Z,78.90
2023-05-14T21:54:21.092Z,78.15
2023-05-14T21:56:48.423Z,78.06
2023-05-14T21:59:15.488Z,78.27
2023-05-14T22:02:04.936Z,77.88
2023-05-14T22:04:29.839Z,78.73
2023-05-14T22:06:57.001Z,78.74
2023-05-14T22:09:24.758Z,76.90
2023-05-14T22:11:52.072Z,76.89
2023-05-14T22:14:18.993Z,77.59
2023-05-14T22:16:46.316Z,78.73
2023-05-14T22:19:13.458Z,79.12
2023-05-14T22:21:40.431Z,78.53
2023-05-14T22:24:07.642Z,79.05
2023-05-14T22:26:35.173Z,80.47
2023-05-14T22:29:02.108Z,79.37
2023-05-14T22:31:29.524Z,79.54
2023-05-14T22:33:56.481Z,79.71
2023-05-14T22:36:23.545Z,79.85
2023-05-14T22:38:50.709Z,79.97
2023-05-14T22:41:17.746Z,79.08
2023-05-14T22:43:44.726Z,81.73
2023-05-14T22:46:11.732Z,80.70
2023-05-14T22:48:38.671Z,80.90
2023-05-14T22:51:05.854Z,80.44
2023-05-14T22:53:32.789Z,81.27
2023-05-14T22:55:59.855Z,80.99
2023-05-14T22:58:26.826Z,80.97
2023-05-14T23:00:53.815Z,81.06
2023-05-14T23:03:20.877Z,81.11
2023-05-14T23:05:47.851Z,80.80
2023-05-14T23:08:14.909Z,81.14
2023-05-14T23:10:41.949Z,80.87
2023-05-14T23:13:09.025Z,80.43
2023-05-14T23:15:36.073Z,80.39
2023-05-14T23:18:03.073Z,78.08
2023-05-14T23:20:30.273Z,81.17
2023-05-14T23:22:57.203Z,80.36
2023-05-14T23:25:24.604Z,80.40
2023-05-14T23:27:52.304Z,80.98
2023-05-14T23:30:19.387Z,78.93
2023-05-14T23:32:46.311Z,76.27
2023-05-14T23:35:13.527Z,77.74
2023-05-14T23:37:47.303Z,77.95
2023-05-14T23:40:15.830Z,79.89
2023-05-14T23:42:43.701Z,80.32
2023-05-14T23:45:12.487Z,78.22
2023-05-14T23:47:40.638Z,79.02
2023-05-14T23:50:07.974Z,79.79
2023-05-14T23:52:35.021Z,78.95
2023-05-14T23:55:02.084Z,78.86
2023-05-14T23:57:29.148Z,76.16
2023-05-14T23:59:56.175Z,78.38
